sensor_id;sensor_type;location;lat;lon;timestamp;P1;durP1;ratioP1;P2;durP2;ratioP2
6928;SDS011;3504;52.616;13.238;2022-08-07T00:00:29;5.00;;;2.20;;
6928;SDS011;3504;52.616;13.238;2022-08-07T00:05:31;3.70;;;2.30;;
6928;SDS011;3504;52.616;13.238;2022-08-07T00:10:31;2.23;;;2.00;;
6928;SDS011;3504;52.616;13.238;2022-08-07T00:15:33;3.63;;;2.20;;
6928;SDS011;3504;52.616;13.238;2022-08-07T00:20:34;3.03;;;2.63;;
6928;SDS011;3504;52.616;13.238;2022-08-07T00:25:37;2.97;;;2.70;;
6928;SDS011;3504;52.616;13.238;2022-08-07T00:30:38;4.27;;;3.40;;
6928;SDS011;3504;52.616;13.238;2022-08-07T00:35:40;3.40;;;3.10;;
6928;SDS011;3504;52.616;13.238;2022-08-07T00:40:40;3.57;;;3.13;;
6928;SDS011;3504;52.616;13.238;2022-08-07T00:45:42;4.67;;;3.20;;
6928;SDS011;3504;52.616;13.238;2022-08-07T00:50:43;4.40;;;3.17;;
6928;SDS011;3504;52.616;13.238;2022-08-07T00:55:44;4.70;;;3.43;;
6928;SDS011;3504;52.616;13.238;2022-08-07T01:00:45;4.03;;;3.30;;
6928;SDS011;3504;52.616;13.238;2022-08-07T01:05:48;4.43;;;3.47;;
6928;SDS011;3504;52.616;13.238;2022-08-07T01:10:50;3.80;;;3.37;;
6928;SDS011;3504;52.616;13.238;2022-08-07T01:15:52;4.60;;;3.73;;
6928;SDS011;3504;52.616;13.238;2022-08-07T01:21:07;5.60;;;3.63;;
6928;SDS011;3504;52.616;13.238;2022-08-07T01:26:16;4.00;;;3.57;;
6928;SDS011;3504;52.616;13.238;2022-08-07T01:31:20;3.57;;;3.27;;
6928;SDS011;3504;52.616;13.238;2022-08-07T01:36:30;4.23;;;3.80;;
6928;SDS011;3504;52.616;13.238;2022-08-07T01:41:33;4.60;;;4.17;;
6928;SDS011;3504;52.616;13.238;2022-08-07T01:46:40;5.23;;;4.43;;
6928;SDS011;3504;52.616;13.238;2022-08-07T01:51:42;6.37;;;4.67;;
6928;SDS011;3504;52.616;13.238;2022-08-07T01:56:53;5.43;;;4.53;;
6928;SDS011;3504;52.616;13.238;2022-08-07T02:02:04;5.23;;;4.20;;
6928;SDS011;3504;52.616;13.238;2022-08-07T02:07:11;6.00;;;4.60;;
6928;SDS011;3504;52.616;13.238;2022-08-07T02:12:13;5.67;;;4.43;;
6928;SDS011;3504;52.616;13.238;2022-08-07T02:17:23;6.20;;;5.33;;
6928;SDS011;3504;52.616;13.238;2022-08-07T02:22:26;5.87;;;4.77;;
6928;SDS011;3504;52.616;13.238;2022-08-07T02:27:30;5.30;;;4.80;;
6928;SDS011;3504;52.616;13.238;2022-08-07T02:32:32;5.00;;;4.50;;
6928;SDS011;3504;52.616;13.238;2022-08-07T02:37:39;6.53;;;5.33;;
6928;SDS011;3504;52.616;13.238;2022-08-07T02:42:43;5.30;;;4.80;;
6928;SDS011;3504;52.616;13.238;2022-08-07T02:47:46;5.63;;;5.03;;
6928;SDS011;3504;52.616;13.238;2022-08-07T02:52:53;6.13;;;5.03;;
6928;SDS011;3504;52.616;13.238;2022-08-07T02:58:03;5.73;;;4.90;;
6928;SDS011;3504;52.616;13.238;2022-08-07T03:03:10;6.07;;;4.93;;
6928;SDS011;3504;52.616;13.238;2022-08-07T03:08:16;5.23;;;4.73;;
6928;SDS011;3504;52.616;13.238;2022-08-07T03:13:21;6.00;;;5.07;;
6928;SDS011;3504;52.616;13.238;2022-08-07T03:18:25;6.17;;;5.30;;
6928;SDS011;3504;52.616;13.238;2022-08-07T03:23:29;5.87;;;5.00;;
6928;SDS011;3504;52.616;13.238;2022-08-07T03:28:33;6.37;;;5.00;;
6928;SDS011;3504;52.616;13.238;2022-08-07T03:33:35;6.67;;;5.30;;
6928;SDS011;3504;52.616;13.238;2022-08-07T03:38:39;6.60;;;5.60;;
6928;SDS011;3504;52.616;13.238;2022-08-07T03:43:41;5.60;;;5.00;;
6928;SDS011;3504;52.616;13.238;2022-08-07T03:48:43;7.43;;;5.80;;
6928;SDS011;3504;52.616;13.238;2022-08-07T03:53:44;5.67;;;5.17;;
6928;SDS011;3504;52.616;13.238;2022-08-07T03:58:47;6.60;;;5.50;;
6928;SDS011;3504;52.616;13.238;2022-08-07T04:03:49;6.77;;;5.40;;
6928;SDS011;3504;52.616;13.238;2022-08-07T04:08:51;5.77;;;4.73;;
6928;SDS011;3504;52.616;13.238;2022-08-07T04:13:53;5.77;;;4.67;;
6928;SDS011;3504;52.616;13.238;2022-08-07T04:18:58;5.33;;;4.60;;
6928;SDS011;3504;52.616;13.238;2022-08-07T04:24:03;5.97;;;4.93;;
6928;SDS011;3504;52.616;13.238;2022-08-07T04:29:12;7.37;;;4.77;;
6928;SDS011;3504;52.616;13.238;2022-08-07T04:34:13;5.73;;;5.13;;
6928;SDS011;3504;52.616;13.238;2022-08-07T04:39:15;5.43;;;4.93;;
6928;SDS011;3504;52.616;13.238;2022-08-07T04:44:16;5.13;;;4.67;;
6928;SDS011;3504;52.616;13.238;2022-08-07T04:54:54;5.37;;;4.80;;
6928;SDS011;3504;52.616;13.238;2022-08-07T05:00:06;6.47;;;4.63;;
6928;SDS011;3504;52.616;13.238;2022-08-07T05:10:45;5.80;;;4.70;;
6928;SDS011;3504;52.616;13.238;2022-08-07T05:15:57;5.50;;;4.67;;
6928;SDS011;3504;52.616;13.238;2022-08-07T05:21:02;5.33;;;4.57;;
6928;SDS011;3504;52.616;13.238;2022-08-07T05:26:09;6.03;;;5.10;;
6928;SDS011;3504;52.616;13.238;2022-08-07T05:31:16;5.73;;;4.57;;
6928;SDS011;3504;52.616;13.238;2022-08-07T05:36:21;5.60;;;4.20;;
6928;SDS011;3504;52.616;13.238;2022-08-07T05:41:24;6.50;;;4.30;;
6928;SDS011;3504;52.616;13.238;2022-08-07T05:46:25;5.00;;;4.17;;
6928;SDS011;3504;52.616;13.238;2022-08-07T05:51:28;5.07;;;4.37;;
6928;SDS011;3504;52.616;13.238;2022-08-07T05:56:29;4.17;;;3.77;;
6928;SDS011;3504;52.616;13.238;2022-08-07T06:01:33;7.53;;;3.87;;
6928;SDS011;3504;52.616;13.238;2022-08-07T06:06:35;5.83;;;3.70;;
6928;SDS011;3504;52.616;13.238;2022-08-07T06:11:40;5.20;;;2.90;;
6928;SDS011;3504;52.616;13.238;2022-08-07T06:16:43;4.17;;;2.83;;
6928;SDS011;3504;52.616;13.238;2022-08-07T06:21:48;4.80;;;2.70;;
6928;SDS011;3504;52.616;13.238;2022-08-07T06:26:49;5.30;;;2.90;;
6928;SDS011;3504;52.616;13.238;2022-08-07T06:31:51;5.67;;;2.40;;
6928;SDS011;3504;52.616;13.238;2022-08-07T06:36:54;5.70;;;2.60;;
6928;SDS011;3504;52.616;13.238;2022-08-07T06:42:06;3.45;;;2.47;;
6928;SDS011;3504;52.616;13.238;2022-08-07T06:47:44;3.08;;;2.35;;
6928;SDS011;3504;52.616;13.238;2022-08-07T06:52:52;2.63;;;2.40;;
6928;SDS011;3504;52.616;13.238;2022-08-07T06:57:58;7.07;;;2.40;;
6928;SDS011;3504;52.616;13.238;2022-08-07T07:03:08;3.50;;;2.35;;
6928;SDS011;3504;52.616;13.238;2022-08-07T07:08:09;3.65;;;2.22;;
6928;SDS011;3504;52.616;13.238;2022-08-07T07:13:21;3.72;;;2.28;;
6928;SDS011;3504;52.616;13.238;2022-08-07T07:18:35;5.45;;;2.40;;
6928;SDS011;3504;52.616;13.238;2022-08-07T07:23:42;4.10;;;2.35;;
6928;SDS011;3504;52.616;13.238;2022-08-07T07:28:48;4.97;;;2.55;;
6928;SDS011;3504;52.616;13.238;2022-08-07T07:33:59;4.22;;;2.38;;
6928;SDS011;3504;52.616;13.238;2022-08-07T07:39:05;2.50;;;2.03;;
6928;SDS011;3504;52.616;13.238;2022-08-07T07:44:09;3.63;;;2.00;;
6928;SDS011;3504;52.616;13.238;2022-08-07T07:49:11;4.25;;;2.35;;
6928;SDS011;3504;52.616;13.238;2022-08-07T07:54:16;2.50;;;1.75;;
6928;SDS011;3504;52.616;13.238;2022-08-07T07:59:17;3.65;;;1.60;;
6928;SDS011;3504;52.616;13.238;2022-08-07T08:04:20;4.90;;;2.30;;
6928;SDS011;3504;52.616;13.238;2022-08-07T08:09:23;8.85;;;2.05;;
6928;SDS011;3504;52.616;13.238;2022-08-07T08:14:26;2.83;;;1.75;;
6928;SDS011;3504;52.616;13.238;2022-08-07T08:19:28;2.97;;;1.60;;
6928;SDS011;3504;52.616;13.238;2022-08-07T08:24:36;3.78;;;1.75;;
6928;SDS011;3504;52.616;13.238;2022-08-07T08:30:04;3.15;;;1.70;;
6928;SDS011;3504;52.616;13.238;2022-08-07T08:35:09;3.03;;;1.67;;
6928;SDS011;3504;52.616;13.238;2022-08-07T08:40:23;5.85;;;2.03;;
6928;SDS011;3504;52.616;13.238;2022-08-07T08:45:43;3.50;;;1.98;;
6928;SDS011;3504;52.616;13.238;2022-08-07T08:51:09;3.88;;;2.10;;
6928;SDS011;3504;52.616;13.238;2022-08-07T09:07:35;4.55;;;2.00;;
6928;SDS011;3504;52.616;13.238;2022-08-07T09:12:45;4.25;;;2.20;;
6928;SDS011;3504;52.616;13.238;2022-08-07T09:18:13;2.22;;;2.00;;
6928;SDS011;3504;52.616;13.238;2022-08-07T09:23:45;2.83;;;2.17;;
6928;SDS011;3504;52.616;13.238;2022-08-07T09:29:24;3.72;;;1.80;;
6928;SDS011;3504;52.616;13.238;2022-08-07T09:34:51;4.30;;;2.20;;
6928;SDS011;3504;52.616;13.238;2022-08-07T09:40:27;4.00;;;2.03;;
6928;SDS011;3504;52.616;13.238;2022-08-07T09:45:54;2.55;;;1.65;;
6928;SDS011;3504;52.616;13.238;2022-08-07T09:51:24;2.63;;;1.95;;
6928;SDS011;3504;52.616;13.238;2022-08-07T09:57:17;3.20;;;2.20;;
6928;SDS011;3504;52.616;13.238;2022-08-07T10:19:23;2.95;;;1.95;;
6928;SDS011;3504;52.616;13.238;2022-08-07T10:30:17;5.25;;;2.10;;
6928;SDS011;3504;52.616;13.238;2022-08-07T10:35:45;3.88;;;2.20;;
6928;SDS011;3504;52.616;13.238;2022-08-07T10:46:34;2.75;;;1.83;;
6928;SDS011;3504;52.616;13.238;2022-08-07T10:52:02;2.33;;;1.58;;
6928;SDS011;3504;52.616;13.238;2022-08-07T11:02:43;3.78;;;1.80;;
6928;SDS011;3504;52.616;13.238;2022-08-07T11:07:49;3.13;;;1.75;;
6928;SDS011;3504;52.616;13.238;2022-08-07T11:23:51;1.85;;;1.38;;
6928;SDS011;3504;52.616;13.238;2022-08-07T11:29:07;1.92;;;1.30;;
6928;SDS011;3504;52.616;13.238;2022-08-07T11:34:23;3.40;;;1.25;;
6928;SDS011;3504;52.616;13.238;2022-08-07T11:51:23;2.03;;;1.20;;
6928;SDS011;3504;52.616;13.238;2022-08-07T12:08:43;2.33;;;1.20;;
6928;SDS011;3504;52.616;13.238;2022-08-07T12:19:35;2.95;;;1.92;;
6928;SDS011;3504;52.616;13.238;2022-08-07T12:25:05;3.72;;;1.90;;
6928;SDS011;3504;52.616;13.238;2022-08-07T12:30:44;3.72;;;2.38;;
6928;SDS011;3504;52.616;13.238;2022-08-07T12:35:50;2.92;;;2.00;;
6928;SDS011;3504;52.616;13.238;2022-08-07T12:40:54;2.55;;;2.13;;
6928;SDS011;3504;52.616;13.238;2022-08-07T12:51:40;4.15;;;1.40;;
6928;SDS011;3504;52.616;13.238;2022-08-07T12:56:50;4.85;;;1.55;;
6928;SDS011;3504;52.616;13.238;2022-08-07T13:13:33;1.77;;;1.23;;
6928;SDS011;3504;52.616;13.238;2022-08-07T13:24:06;4.80;;;1.50;;
6928;SDS011;3504;52.616;13.238;2022-08-07T13:29:19;3.05;;;1.40;;
6928;SDS011;3504;52.616;13.238;2022-08-07T13:45:13;2.67;;;1.40;;
6928;SDS011;3504;52.616;13.238;2022-08-07T13:50:14;2.92;;;1.50;;
6928;SDS011;3504;52.616;13.238;2022-08-07T13:55:20;4.15;;;1.48;;
6928;SDS011;3504;52.616;13.238;2022-08-07T14:00:21;2.08;;;1.35;;
6928;SDS011;3504;52.616;13.238;2022-08-07T14:05:35;2.10;;;1.50;;
6928;SDS011;3504;52.616;13.238;2022-08-07T14:10:37;3.30;;;1.70;;
6928;SDS011;3504;52.616;13.238;2022-08-07T14:15:49;2.95;;;1.52;;
6928;SDS011;3504;52.616;13.238;2022-08-07T14:21:38;1.73;;;1.30;;
6928;SDS011;3504;52.616;13.238;2022-08-07T14:26:58;1.85;;;1.27;;
6928;SDS011;3504;52.616;13.238;2022-08-07T14:32:06;2.58;;;1.50;;
6928;SDS011;3504;52.616;13.238;2022-08-07T14:37:11;2.15;;;1.50;;
6928;SDS011;3504;52.616;13.238;2022-08-07T14:42:20;2.45;;;1.10;;
6928;SDS011;3504;52.616;13.238;2022-08-07T14:47:26;2.47;;;1.20;;
6928;SDS011;3504;52.616;13.238;2022-08-07T14:52:31;5.13;;;1.40;;
6928;SDS011;3504;52.616;13.238;2022-08-07T14:57:35;1.75;;;1.40;;
6928;SDS011;3504;52.616;13.238;2022-08-07T15:02:37;3.47;;;1.30;;
6928;SDS011;3504;52.616;13.238;2022-08-07T15:07:41;1.77;;;1.50;;
6928;SDS011;3504;52.616;13.238;2022-08-07T15:12:44;1.52;;;1.42;;
6928;SDS011;3504;52.616;13.238;2022-08-07T15:17:44;2.28;;;1.38;;
6928;SDS011;3504;52.616;13.238;2022-08-07T15:22:57;2.15;;;1.17;;
6928;SDS011;3504;52.616;13.238;2022-08-07T15:28:01;2.53;;;1.50;;
6928;SDS011;3504;52.616;13.238;2022-08-07T15:33:05;1.75;;;1.38;;
6928;SDS011;3504;52.616;13.238;2022-08-07T15:38:07;3.25;;;1.27;;
6928;SDS011;3504;52.616;13.238;2022-08-07T15:43:14;2.38;;;1.40;;
6928;SDS011;3504;52.616;13.238;2022-08-07T15:48:32;4.70;;;1.52;;
6928;SDS011;3504;52.616;13.238;2022-08-07T15:53:40;1.58;;;1.30;;
6928;SDS011;3504;52.616;13.238;2022-08-07T15:58:56;2.40;;;1.80;;
6928;SDS011;3504;52.616;13.238;2022-08-07T16:04:01;3.03;;;1.80;;
6928;SDS011;3504;52.616;13.238;2022-08-07T16:14:32;3.72;;;1.40;;
6928;SDS011;3504;52.616;13.238;2022-08-07T16:20:15;3.50;;;1.30;;
6928;SDS011;3504;52.616;13.238;2022-08-07T16:30:59;3.25;;;1.70;;
6928;SDS011;3504;52.616;13.238;2022-08-07T16:58:53;3.38;;;2.05;;
6928;SDS011;3504;52.616;13.238;2022-08-07T17:09:43;3.15;;;1.60;;
6928;SDS011;3504;52.616;13.238;2022-08-07T17:21:15;2.80;;;1.77;;
6928;SDS011;3504;52.616;13.238;2022-08-07T17:26:27;3.72;;;1.88;;
6928;SDS011;3504;52.616;13.238;2022-08-07T17:37:10;2.25;;;1.77;;
6928;SDS011;3504;52.616;13.238;2022-08-07T17:43:01;3.20;;;1.90;;
6928;SDS011;3504;52.616;13.238;2022-08-07T17:53:41;2.60;;;1.80;;
6928;SDS011;3504;52.616;13.238;2022-08-07T17:59:18;3.15;;;1.88;;
6928;SDS011;3504;52.616;13.238;2022-08-07T18:09:43;3.00;;;1.70;;
6928;SDS011;3504;52.616;13.238;2022-08-07T18:14:58;1.60;;;1.50;;
6928;SDS011;3504;52.616;13.238;2022-08-07T18:20:18;3.90;;;2.08;;
6928;SDS011;3504;52.616;13.238;2022-08-07T18:25:34;3.17;;;1.70;;
6928;SDS011;3504;52.616;13.238;2022-08-07T18:47:40;2.70;;;1.92;;
6928;SDS011;3504;52.616;13.238;2022-08-07T19:04:51;4.50;;;2.80;;
6928;SDS011;3504;52.616;13.238;2022-08-07T19:10:06;3.33;;;2.20;;
6928;SDS011;3504;52.616;13.238;2022-08-07T19:15:19;4.20;;;1.90;;
6928;SDS011;3504;52.616;13.238;2022-08-07T19:20:53;3.15;;;2.55;;
6928;SDS011;3504;52.616;13.238;2022-08-07T19:26:09;3.85;;;1.83;;
6928;SDS011;3504;52.616;13.238;2022-08-07T19:31:14;2.70;;;2.00;;
6928;SDS011;3504;52.616;13.238;2022-08-07T19:36:23;2.38;;;1.83;;
6928;SDS011;3504;52.616;13.238;2022-08-07T19:41:26;3.67;;;2.00;;
6928;SDS011;3504;52.616;13.238;2022-08-07T19:46:33;2.70;;;2.45;;
6928;SDS011;3504;52.616;13.238;2022-08-07T19:51:39;3.05;;;2.00;;
6928;SDS011;3504;52.616;13.238;2022-08-07T19:56:44;3.33;;;2.05;;
6928;SDS011;3504;52.616;13.238;2022-08-07T20:01:53;3.10;;;2.05;;
6928;SDS011;3504;52.616;13.238;2022-08-07T20:06:56;2.90;;;2.30;;
6928;SDS011;3504;52.616;13.238;2022-08-07T20:11:57;3.25;;;2.00;;
6928;SDS011;3504;52.616;13.238;2022-08-07T20:16:59;3.08;;;2.38;;
6928;SDS011;3504;52.616;13.238;2022-08-07T20:22:02;4.55;;;2.40;;
6928;SDS011;3504;52.616;13.238;2022-08-07T20:27:13;4.97;;;2.72;;
6928;SDS011;3504;52.616;13.238;2022-08-07T20:32:17;5.53;;;2.63;;
6928;SDS011;3504;52.616;13.238;2022-08-07T20:37:35;2.95;;;2.17;;
6928;SDS011;3504;52.616;13.238;2022-08-07T20:42:42;4.78;;;2.40;;
6928;SDS011;3504;52.616;13.238;2022-08-07T20:47:49;4.15;;;3.45;;
6928;SDS011;3504;52.616;13.238;2022-08-07T20:52:52;3.65;;;2.38;;
6928;SDS011;3504;52.616;13.238;2022-08-07T20:57:58;2.58;;;2.17;;
6928;SDS011;3504;52.616;13.238;2022-08-07T21:03:00;5.80;;;3.05;;
6928;SDS011;3504;52.616;13.238;2022-08-07T21:08:05;4.20;;;3.10;;
6928;SDS011;3504;52.616;13.238;2022-08-07T21:13:15;4.30;;;2.92;;
6928;SDS011;3504;52.616;13.238;2022-08-07T21:18:23;4.00;;;2.25;;
6928;SDS011;3504;52.616;13.238;2022-08-07T21:23:48;3.67;;;2.60;;
6928;SDS011;3504;52.616;13.238;2022-08-07T21:29:08;3.22;;;2.28;;
6928;SDS011;3504;52.616;13.238;2022-08-07T21:34:21;2.80;;;2.53;;
6928;SDS011;3504;52.616;13.238;2022-08-07T21:39:38;3.92;;;2.60;;
6928;SDS011;3504;52.616;13.238;2022-08-07T22:01:55;4.73;;;3.07;;
6928;SDS011;3504;52.616;13.238;2022-08-07T22:12:23;5.33;;;2.87;;
6928;SDS011;3504;52.616;13.238;2022-08-07T22:17:33;4.63;;;3.13;;
6928;SDS011;3504;52.616;13.238;2022-08-07T22:22:44;4.13;;;3.07;;
6928;SDS011;3504;52.616;13.238;2022-08-07T22:27:59;3.90;;;3.20;;
6928;SDS011;3504;52.616;13.238;2022-08-07T22:33:28;4.73;;;3.83;;
6928;SDS011;3504;52.616;13.238;2022-08-07T22:38:41;5.23;;;4.03;;
6928;SDS011;3504;52.616;13.238;2022-08-07T22:43:55;3.97;;;3.17;;
6928;SDS011;3504;52.616;13.238;2022-08-07T23:00:38;4.63;;;3.50;;
6928;SDS011;3504;52.616;13.238;2022-08-07T23:22:04;4.20;;;3.00;;
6928;SDS011;3504;52.616;13.238;2022-08-07T23:33:28;4.53;;;3.43;;
6928;SDS011;3504;52.616;13.238;2022-08-07T23:44:32;5.63;;;3.70;;
6928;SDS011;3504;52.616;13.238;2022-08-07T23:49:58;4.97;;;3.30;;
6928;SDS011;3504;52.616;13.238;2022-08-07T23:55:24;4.10;;;3.20;;
